Time;durP1;ratioP1;P1;durP2;ratioP2;P2;SDS_P1;SDS_P2;PMS_P1;PMS_P2;Temp;Humidity;BMP_temperature;BMP_pressure;BME280_temperature;BME280_humidity;BME280_pressure;Samples;Min_cycle;Max_cycle;Signal;HPM_P1;HPM_P2
2022/10/05 00:00:20;;;;;;;10.05;7.35;;;14.90;99.90;;;;;;5077370;28;20459;-65
2022/10/05 00:02:47;;;;;;;11.43;7.18;;;15.10;99.90;;;;;;5059629;28;20051;-65
2022/10/05 00:05:26;;;;;;;12.93;7.95;;;15.20;99.90;;;;;;5059914;28;20051;-65
2022/10/05 00:07:52;;;;;;;10.48;7.63;;;15.20;99.90;;;;;;5059489;28;20032;-64
2022/10/05 00:10:19;;;;;;;9.75;6.65;;;15.20;99.90;;;;;;5060271;28;20117;-65
2022/10/05 00:12:46;;;;;;;11.43;8.05;;;15.10;99.90;;;;;;5077187;28;20913;-65
2022/10/05 00:15:13;;;;;;;14.63;7.60;;;15.20;99.90;;;;;;5077295;28;20046;-64
2022/10/05 00:17:41;;;;;;;10.25;6.60;;;15.10;99.90;;;;;;5077243;28;20072;-65
2022/10/05 00:20:18;;;;;;;10.05;7.72;;;15.20;99.90;;;;;;5076296;28;20151;-64
2022/10/05 00:22:44;;;;;;;9.98;7.05;;;15.30;99.90;;;;;;5076947;28;20123;-64
2022/10/05 00:25:14;;;;;;;9.98;7.40;;;15.10;99.90;;;;;;5076646;28;20605;-65
2022/10/05 00:27:40;;;;;;;9.02;6.63;;;15.20;99.90;;;;;;5076642;28;20122;-65
2022/10/05 00:30:12;;;;;;;9.73;7.18;;;15.30;99.90;;;;;;5076809;28;21381;-63
2022/10/05 00:32:38;;;;;;;11.18;6.78;;;15.00;99.90;;;;;;5077581;28;20457;-65
2022/10/05 00:35:04;;;;;;;8.98;6.55;;;15.00;99.90;;;;;;5042974;28;20032;-63
2022/10/05 00:37:30;;;;;;;9.10;6.63;;;15.30;99.90;;;;;;5077007;28;20073;-64
2022/10/05 00:39:55;;;;;;;7.75;6.43;;;15.20;99.90;;;;;;5075816;28;20055;-65
2022/10/05 00:42:24;;;;;;;7.68;6.03;;;15.30;99.90;;;;;;5060198;28;20048;-65
2022/10/05 00:45:05;;;;;;;10.50;6.13;;;15.00;99.90;;;;;;5077050;28;20573;-64
2022/10/05 00:47:46;;;;;;;8.80;6.50;;;15.10;99.90;;;;;;5076689;28;20101;-65
2022/10/05 00:50:31;;;;;;;10.88;6.90;;;15.10;99.90;;;;;;5058014;28;20158;-65
2022/10/05 00:53:00;;;;;;;8.50;6.68;;;15.00;99.90;;;;;;5076756;28;20118;-65
2022/10/05 00:55:35;;;;;;;7.38;6.57;;;15.10;99.90;;;;;;5076331;28;20338;-66
2022/10/05 00:58:09;;;;;;;11.23;6.18;;;15.20;99.90;;;;;;5075843;28;20093;-65
2022/10/05 01:01:01;;;;;;;9.85;6.85;;;15.00;99.90;;;;;;5076184;28;20047;-65
2022/10/05 01:03:51;;;;;;;11.18;6.50;;;15.00;99.90;;;;;;5047526;28;20100;-65
2022/10/05 01:06:35;;;;;;;8.25;6.00;;;15.20;99.90;;;;;;5076466;28;20925;-65
2022/10/05 01:09:25;;;;;;;9.05;6.05;;;15.00;99.90;;;;;;5076108;28;20729;-66
2022/10/05 01:12:01;;;;;;;9.30;6.38;;;15.00;99.90;;;;;;5076727;28;20195;-65
2022/10/05 01:14:37;;;;;;;8.40;5.85;;;15.00;99.90;;;;;;5075573;28;20040;-65
2022/10/05 01:17:09;;;;;;;10.07;6.30;;;15.30;99.90;;;;;;5075980;28;20490;-66
2022/10/05 01:19:59;;;;;;;9.32;5.60;;;15.20;99.90;;;;;;5075002;28;20501;-65
2022/10/05 01:22:56;;;;;;;10.05;5.60;;;15.20;99.90;;;;;;5075932;28;20429;-64
2022/10/05 01:25:34;;;;;;;9.05;5.53;;;14.90;99.90;;;;;;5057474;28;20050;-63
2022/10/05 01:28:06;;;;;;;7.75;5.95;;;14.90;99.90;;;;;;5076390;28;20044;-63
2022/10/05 01:31:06;;;;;;;8.50;5.20;;;14.90;99.90;;;;;;5058231;28;20040;-65
2022/10/05 01:33:59;;;;;;;8.52;5.43;;;15.10;99.90;;;;;;5069001;28;20212;-64
2022/10/05 01:36:25;;;;;;;7.43;5.28;;;14.80;99.90;;;;;;5060158;28;20044;-65
2022/10/05 01:39:07;;;;;;;8.75;5.63;;;15.10;99.90;;;;;;5062851;28;20490;-65
2022/10/05 01:41:47;;;;;;;8.55;5.07;;;15.00;99.90;;;;;;5062242;28;20040;-64
2022/10/05 01:44:29;;;;;;;8.60;5.15;;;14.90;99.90;;;;;;5080453;28;20036;-65
2022/10/05 01:46:59;;;;;;;6.57;5.63;;;14.90;99.90;;;;;;5080012;28;20296;-64
2022/10/05 01:49:34;;;;;;;7.78;4.88;;;15.10;99.90;;;;;;5063253;28;20043;-64
2022/10/05 01:52:21;;;;;;;8.45;5.15;;;14.90;99.90;;;;;;5078422;28;20173;-66
2022/10/05 01:54:53;;;;;;;8.55;4.72;;;14.90;99.90;;;;;;5079043;28;20043;-64
2022/10/05 01:57:28;;;;;;;6.80;4.47;;;15.20;99.90;;;;;;5078731;28;20036;-65
2022/10/05 02:00:16;;;;;;;7.38;4.47;;;15.00;99.90;;;;;;5079846;28;20052;-65
2022/10/05 02:02:50;;;;;;;8.20;4.82;;;15.20;99.90;;;;;;5079914;28;20440;-65
2022/10/05 02:05:28;;;;;;;6.88;4.88;;;14.90;99.90;;;;;;5062764;28;20040;-65
2022/10/05 02:08:02;;;;;;;4.95;4.38;;;14.80;99.90;;;;;;5062257;28;20210;-65
2022/10/05 02:11:12;;;;;;;7.45;4.32;;;15.00;99.90;;;;;;5079662;28;20067;-65
2022/10/05 02:13:48;;;;;;;8.48;4.22;;;14.90;99.90;;;;;;5056546;28;20465;-64
2022/10/05 02:16:16;;;;;;;6.53;4.50;;;15.10;99.90;;;;;;5079142;28;20771;-65
2022/10/05 02:18:58;;;;;;;7.25;4.35;;;15.10;99.90;;;;;;5079380;28;20357;-64
2022/10/05 02:21:24;;;;;;;9.13;4.78;;;14.90;99.90;;;;;;5062542;28;20092;-63
2022/10/05 02:23:55;;;;;;;8.40;4.43;;;15.10;99.90;;;;;;5078866;28;20052;-64
2022/10/05 02:26:23;;;;;;;4.75;3.95;;;15.00;99.90;;;;;;5078815;28;20040;-64
2022/10/05 02:28:58;;;;;;;6.93;4.53;;;15.10;99.90;;;;;;5078923;28;20039;-65
2022/10/05 02:31:53;;;;;;;6.75;4.63;;;15.00;99.90;;;;;;5078921;28;20097;-64
2022/10/05 02:34:34;;;;;;;4.68;3.78;;;15.10;99.90;;;;;;5075123;28;20048;-65
2022/10/05 02:37:22;;;;;;;6.35;3.97;;;14.90;99.90;;;;;;5062054;28;20185;-64
2022/10/05 02:40:25;;;;;;;6.97;4.00;;;14.90;99.90;;;;;;5078375;28;20070;-65
2022/10/05 02:42:59;;;;;;;6.55;4.50;;;14.90;99.90;;;;;;5078378;28;20055;-64
2022/10/05 02:45:43;;;;;;;8.93;4.63;;;15.00;99.90;;;;;;5078740;28;20047;-66
2022/10/05 02:48:17;;;;;;;6.75;4.43;;;15.00;99.90;;;;;;5078764;28;20047;-64
2022/10/05 02:50:53;;;;;;;6.90;4.60;;;15.00;99.90;;;;;;5078185;28;20055;-64
2022/10/05 02:53:40;;;;;;;6.25;4.30;;;14.90;99.90;;;;;;5078870;28;20097;-65
2022/10/05 02:56:55;;;;;;;7.22;5.03;;;14.90;99.90;;;;;;5079234;28;20040;-64
2022/10/05 02:59:39;;;;;;;6.90;4.80;;;15.00;99.90;;;;;;5060248;28;20052;-65
2022/10/05 03:02:18;;;;;;;7.68;4.90;;;15.00;99.90;;;;;;5077765;28;20113;-65
2022/10/05 03:05:11;;;;;;;6.45;5.07;;;15.00;99.90;;;;;;5061693;28;20418;-65
2022/10/05 03:07:49;;;;;;;6.38;4.53;;;15.00;99.90;;;;;;5059250;28;20048;-64
2022/10/05 03:10:33;;;;;;;5.75;4.50;;;14.90;99.90;;;;;;5078567;28;20472;-65
2022/10/05 03:13:19;;;;;;;7.82;5.32;;;14.70;99.90;;;;;;5078315;28;20122;-65
2022/10/05 03:16:06;;;;;;;7.50;5.15;;;14.80;99.90;;;;;;5078136;28;20596;-65
2022/10/05 03:18:56;;;;;;;7.13;5.53;;;14.80;99.90;;;;;;5078359;28;20082;-65
2022/10/05 03:21:41;;;;;;;8.15;5.15;;;14.90;99.90;;;;;;5078100;28;20490;-64
2022/10/05 03:24:44;;;;;;;8.95;5.43;;;14.80;99.90;;;;;;5078061;28;20103;-64
2022/10/05 03:27:43;;;;;;;7.45;5.38;;;14.80;99.90;;;;;;5077732;28;20148;-65
2022/10/05 03:30:20;;;;;;;6.78;5.70;;;14.80;99.90;;;;;;5078104;28;20035;-65
2022/10/05 03:32:55;;;;;;;7.43;5.32;;;14.70;99.90;;;;;;5077953;28;20036;-65
2022/10/05 03:36:01;;;;;;;7.32;5.43;;;14.70;99.90;;;;;;5059131;28;20046;-66
2022/10/05 03:38:36;;;;;;;8.95;5.60;;;14.80;99.90;;;;;;5060293;28;20048;-65
2022/10/05 03:41:20;;;;;;;9.15;5.95;;;15.00;99.90;;;;;;5077339;28;20105;-64
2022/10/05 03:44:18;;;;;;;8.55;6.10;;;15.00;99.90;;;;;;5077620;28;20490;-64
2022/10/05 03:47:03;;;;;;;8.32;5.38;;;14.80;99.90;;;;;;5077542;28;20520;-65
2022/10/05 03:49:56;;;;;;;8.70;6.22;;;15.10;99.90;;;;;;5078125;28;20044;-64
2022/10/05 03:52:35;;;;;;;7.68;5.63;;;14.90;99.90;;;;;;5077473;28;21264;-65
2022/10/05 03:55:04;;;;;;;8.30;6.03;;;14.90;99.90;;;;;;5060280;28;20127;-66
2022/10/05 03:57:35;;;;;;;9.18;5.97;;;15.00;99.90;;;;;;5077370;28;20490;-65
2022/10/05 04:00:16;;;;;;;8.15;5.70;;;14.90;99.90;;;;;;5077382;28;20039;-66
2022/10/05 04:02:50;;;;;;;7.65;5.78;;;15.00;99.90;;;;;;5074550;28;20406;-65
2022/10/05 04:05:30;;;;;;;8.07;5.70;;;14.90;99.90;;;;;;5076622;28;20076;-65
2022/10/05 04:08:05;;;;;;;9.45;5.15;;;15.00;99.90;;;;;;5076777;28;20043;-64
2022/10/05 04:10:45;;;;;;;10.10;5.97;;;15.00;99.90;;;;;;5061008;28;20143;-65
2022/10/05 04:13:33;;;;;;;5.97;4.53;;;14.90;99.90;;;;;;5077060;28;20074;-65
2022/10/05 04:16:10;;;;;;;7.57;5.72;;;15.00;99.90;;;;;;5077250;28;20477;-65
2022/10/05 04:18:45;;;;;;;8.50;5.38;;;14.80;99.90;;;;;;5077594;28;20471;-65
2022/10/05 04:21:27;;;;;;;8.85;5.88;;;14.70;99.90;;;;;;5076510;28;20047;-65
2022/10/05 04:24:12;;;;;;;10.38;5.50;;;14.90;99.90;;;;;;5076692;28;20159;-65
2022/10/05 04:26:53;;;;;;;8.40;5.13;;;14.80;99.90;;;;;;5076572;28;20069;-65
2022/10/05 04:29:39;;;;;;;6.70;5.20;;;14.80;99.90;;;;;;5059959;28;20036;-66
2022/10/05 04:32:54;;;;;;;7.45;5.45;;;15.00;99.90;;;;;;5076637;28;20036;-66
2022/10/05 04:35:54;;;;;;;6.40;4.88;;;15.00;99.90;;;;;;5037955;28;20044;-64
2022/10/05 04:38:40;;;;;;;6.85;5.00;;;15.00;99.90;;;;;;5076219;28;20078;-65
2022/10/05 04:41:11;;;;;;;6.85;5.30;;;15.00;99.90;;;;;;5076981;28;20561;-64
2022/10/05 04:43:55;;;;;;;8.52;4.90;;;14.80;99.90;;;;;;5075986;28;20039;-65
2022/10/05 04:46:35;;;;;;;7.88;5.10;;;14.70;99.90;;;;;;5077037;28;20567;-64
2022/10/05 04:49:09;;;;;;;7.15;5.47;;;14.90;99.90;;;;;;5076248;28;20048;-64
2022/10/05 04:52:13;;;;;;;9.95;5.40;;;14.70;99.90;;;;;;5076105;28;20054;-66
2022/10/05 04:54:57;;;;;;;7.00;5.40;;;14.80;99.90;;;;;;5058523;28;20515;-64
2022/10/05 04:57:27;;;;;;;7.18;5.65;;;14.90;99.90;;;;;;5076090;28;20042;-64
2022/10/05 05:00:17;;;;;;;7.47;5.50;;;14.70;99.90;;;;;;5075603;28;20174;-65
2022/10/05 05:03:06;;;;;;;9.68;5.55;;;14.80;99.90;;;;;;5076288;28;20105;-64
2022/10/05 05:06:12;;;;;;;8.00;6.13;;;14.80;99.90;;;;;;5076548;28;20287;-65
2022/10/05 05:09:15;;;;;;;8.05;5.28;;;14.80;99.90;;;;;;5076435;28;20040;-64
2022/10/05 05:12:10;;;;;;;7.67;5.33;;;15.00;99.90;;;;;;5076110;28;20066;-64
2022/10/05 05:14:48;;;;;;;6.22;5.60;;;14.90;99.90;;;;;;5058996;28;20297;-63
2022/10/05 05:17:31;;;;;;;7.43;5.32;;;14.80;99.90;;;;;;5075821;28;20028;-66
2022/10/05 05:20:25;;;;;;;8.18;5.38;;;14.90;99.90;;;;;;5075703;28;20040;-64
2022/10/05 05:23:22;;;;;;;6.22;5.60;;;15.00;99.90;;;;;;5059647;28;20039;-65
2022/10/05 05:26:04;;;;;;;9.20;5.45;;;14.70;99.90;;;;;;5075130;28;20075;-65
2022/10/05 05:28:58;;;;;;;6.63;5.43;;;14.70;99.90;;;;;;5076406;28;20048;-66
2022/10/05 05:31:24;;;;;;;;;;;14.70;99.90;;;;;;5093796;28;20040;-64
2022/10/05 05:34:09;;;;;;;8.82;5.95;;;14.80;99.90;;;;;;5058899;28;20383;-65
2022/10/05 05:37:15;;;;;;;9.80;6.57;;;14.70;99.90;;;;;;5076348;28;20047;-64
2022/10/05 05:40:05;;;;;;;6.28;5.50;;;14.70;99.90;;;;;;5075601;28;21599;-64
2022/10/05 05:42:31;;;;;;;8.27;6.13;;;15.00;99.90;;;;;;5057379;28;20047;-64
2022/10/05 05:45:06;;;;;;;7.88;6.03;;;15.00;99.90;;;;;;5059473;28;20046;-64
2022/10/05 05:47:36;;;;;;;6.28;5.68;;;14.80;99.90;;;;;;5075125;28;20070;-65
2022/10/05 05:50:23;;;;;;;9.02;6.47;;;14.70;99.90;;;;;;5075402;28;20040;-65
2022/10/05 05:53:17;;;;;;;6.60;5.18;;;14.90;99.90;;;;;;5075548;28;20032;-65
2022/10/05 05:55:50;;;;;;;9.05;6.13;;;14.80;99.90;;;;;;5076014;28;20063;-64
2022/10/05 05:58:16;;;;;;;8.23;6.00;;;15.00;99.90;;;;;;5048981;28;20075;-65
2022/10/05 06:01:07;;;;;;;9.38;5.90;;;14.90;99.90;;;;;;5075861;28;20604;-65
2022/10/05 06:03:45;;;;;;;8.52;6.20;;;14.90;99.90;;;;;;5075278;28;20282;-65
2022/10/05 06:06:16;;;;;;;9.70;6.18;;;14.70;99.90;;;;;;5075188;28;20427;-65
2022/10/05 06:08:59;;;;;;;10.10;5.80;;;14.70;99.90;;;;;;5074988;28;20079;-64
2022/10/05 06:11:39;;;;;;;10.70;5.65;;;15.00;99.90;;;;;;5075425;28;20042;-64
2022/10/05 06:14:20;;;;;;;8.85;5.35;;;14.70;99.90;;;;;;5075434;28;20036;-65
2022/10/05 06:16:59;;;;;;;9.63;5.60;;;14.70;99.90;;;;;;5075073;28;20383;-64
2022/10/05 06:19:27;;;;;;;7.32;4.97;;;15.00;99.90;;;;;;5058902;28;20063;-66
2022/10/05 06:22:12;;;;;;;6.65;5.13;;;15.00;99.90;;;;;;5059333;28;20035;-65
2022/10/05 06:24:55;;;;;;;5.97;4.90;;;14.80;99.90;;;;;;5078517;28;20040;-66
2022/10/05 06:27:39;;;;;;;7.82;5.43;;;15.10;99.90;;;;;;5077666;28;20036;-64
2022/10/05 06:30:16;;;;;;;9.90;5.60;;;14.90;99.90;;;;;;5080411;28;20410;-65
2022/10/05 06:33:03;;;;;;;8.40;4.80;;;15.10;99.90;;;;;;5062901;28;20035;-64
2022/10/05 06:35:35;;;;;;;7.63;4.88;;;15.00;99.90;;;;;;5079812;28;20450;-64
2022/10/05 06:38:16;;;;;;;7.75;4.97;;;15.00;99.90;;;;;;5049936;28;20642;-64
2022/10/05 06:41:19;;;;;;;6.72;5.07;;;14.90;99.90;;;;;;5064214;28;20060;-65
2022/10/05 06:43:59;;;;;;;8.25;4.90;;;14.90;99.90;;;;;;5081342;28;20048;-66
2022/10/05 06:46:42;;;;;;;7.20;4.93;;;15.20;99.90;;;;;;5078521;28;20107;-66
2022/10/05 06:49:30;;;;;;;8.40;5.28;;;14.90;99.90;;;;;;5078672;28;20628;-66
2022/10/05 06:52:04;;;;;;;6.97;4.22;;;15.00;99.90;;;;;;5061406;28;20044;-65
2022/10/05 06:54:59;;;;;;;7.68;4.72;;;14.90;99.90;;;;;;5077884;28;20486;-65
2022/10/05 06:57:40;;;;;;;5.07;4.30;;;15.20;99.90;;;;;;5045593;28;20356;-65
2022/10/05 07:00:22;;;;;;;6.60;4.50;;;15.00;99.90;;;;;;5079050;28;20080;-65
2022/10/05 07:03:07;;;;;;;4.65;4.15;;;15.10;99.90;;;;;;5078973;28;20119;-65
2022/10/05 07:05:50;;;;;;;5.63;5.00;;;15.00;99.90;;;;;;5079013;28;20378;-66
2022/10/05 07:08:24;;;;;;;6.00;4.63;;;15.30;99.90;;;;;;5078216;28;20784;-65
2022/10/05 07:10:56;;;;;;;6.13;4.43;;;15.30;99.90;;;;;;5058740;28;20127;-65
2022/10/05 07:13:47;;;;;;;5.88;4.28;;;15.10;99.90;;;;;;5077865;28;20046;-65
2022/10/05 07:16:16;;;;;;;5.50;4.07;;;15.10;99.90;;;;;;5077495;28;20459;-65
2022/10/05 07:18:51;;;;;;;7.03;4.22;;;15.10;99.90;;;;;;5061147;28;20429;-65
2022/10/05 07:21:33;;;;;;;6.50;4.80;;;15.30;99.90;;;;;;5077910;28;20040;-65
2022/10/05 07:24:23;;;;;;;6.40;4.68;;;15.00;99.90;;;;;;5077557;28;20109;-65
2022/10/05 07:27:00;;;;;;;7.82;5.13;;;15.10;99.90;;;;;;5060665;28;20081;-65
2022/10/05 07:29:44;;;;;;;5.55;4.40;;;15.10;99.90;;;;;;5077570;28;20048;-66
2022/10/05 07:32:30;;;;;;;5.88;4.80;;;15.10;99.90;;;;;;5077462;28;20069;-65
2022/10/05 07:34:59;;;;;;;7.80;5.15;;;15.20;99.90;;;;;;5077892;28;20074;-65
2022/10/05 07:40:22;;;;;;;8.27;5.47;;;15.60;99.90;;;;;;5076589;28;20091;-66
2022/10/05 07:43:07;;;;;;;10.43;5.72;;;15.60;99.90;;;;;;5066045;28;20122;-64
2022/10/05 07:45:44;;;;;;;6.82;5.55;;;15.40;99.90;;;;;;5078043;28;20360;-65
2022/10/05 07:48:42;;;;;;;10.07;5.95;;;15.30;99.90;;;;;;5062021;28;20075;-65
2022/10/05 07:51:26;;;;;;;6.60;4.95;;;15.40;99.90;;;;;;5077496;28;20042;-64
2022/10/05 07:54:16;;;;;;;5.78;5.20;;;15.40;99.90;;;;;;5077797;28;20187;-64
2022/10/05 07:56:44;;;;;;;5.68;4.18;;;15.50;99.90;;;;;;5047549;28;20040;-65
2022/10/05 07:59:42;;;;;;;6.57;4.47;;;15.60;99.90;;;;;;5061541;28;20311;-65
2022/10/05 08:02:43;;;;;;;4.53;3.72;;;15.60;99.90;;;;;;5078474;28;20141;-66
2022/10/05 08:05:08;;;;;;;5.25;3.15;;;15.70;99.90;;;;;;5071156;28;20052;-65
2022/10/05 08:07:35;;;;;;;5.85;3.70;;;15.70;99.90;;;;;;5061190;28;20048;-64
2022/10/05 08:10:35;;;;;;;5.60;3.50;;;15.70;99.90;;;;;;5061333;28;20067;-64
2022/10/05 08:13:29;;;;;;;8.35;3.50;;;15.70;99.90;;;;;;5061088;28;20035;-63
2022/10/05 08:15:57;;;;;;;;;;;16.00;99.90;;;;;;5077925;28;20121;-64
2022/10/05 08:18:45;;;;;;;4.05;2.85;;;15.90;99.90;;;;;;5061113;28;19997;-65
2022/10/05 08:21:14;;;;;;;4.40;2.88;;;15.80;99.90;;;;;;5077621;28;20205;-66
2022/10/05 08:23:49;;;;;;;5.03;2.72;;;16.00;99.90;;;;;;5060796;28;20803;-65
2022/10/05 08:26:30;;;;;;;4.97;2.85;;;15.90;99.90;;;;;;5077565;28;20174;-65
2022/10/05 08:29:01;;;;;;;3.38;2.42;;;16.00;99.90;;;;;;5077632;28;20082;-65
2022/10/05 08:31:39;;;;;;;3.15;2.40;;;16.00;99.90;;;;;;5077725;28;20071;-66
2022/10/05 08:34:24;;;;;;;3.65;2.28;;;16.20;99.90;;;;;;5057802;28;20036;-66
2022/10/05 08:36:55;;;;;;;3.13;1.75;;;16.30;99.90;;;;;;5076887;28;20105;-65
2022/10/05 08:39:25;;;;;;;2.95;1.58;;;16.30;99.90;;;;;;5075723;28;20146;-64
2022/10/05 08:42:04;;;;;;;2.95;1.73;;;16.40;99.90;;;;;;5029850;28;20504;-65
2022/10/05 08:44:55;;;;;;;2.50;1.25;;;16.30;99.90;;;;;;5075353;28;20039;-66
2022/10/05 08:47:50;;;;;;;1.83;1.20;;;16.40;99.90;;;;;;5075790;28;20039;-66
2022/10/05 08:51:01;;;;;;;3.03;1.00;;;16.40;99.90;;;;;;5075992;28;20036;-66
2022/10/05 08:53:58;;;;;;;2.65;1.35;;;16.50;99.90;;;;;;5062576;28;20110;-65
2022/10/05 08:56:33;;;;;;;2.28;1.35;;;16.60;99.90;;;;;;5076514;28;20094;-64
2022/10/05 08:59:07;;;;;;;4.78;1.60;;;16.50;99.90;;;;;;5075864;28;20335;-66
2022/10/05 09:01:55;;;;;;;4.90;2.40;;;16.60;99.90;;;;;;5076403;28;20310;-64
2022/10/05 09:04:20;;;;;;;2.33;1.83;;;16.70;99.90;;;;;;5075537;28;20078;-65
2022/10/05 09:06:56;;;;;;;3.90;2.00;;;16.80;99.90;;;;;;5076511;28;20040;-65
2022/10/05 09:09:57;;;;;;;4.47;2.42;;;16.90;99.90;;;;;;5075605;28;20066;-66
2022/10/05 09:12:42;;;;;;;5.57;1.83;;;17.10;99.90;;;;;;5075650;28;20738;-65
2022/10/05 09:15:35;;;;;;;4.65;2.28;;;16.90;99.90;;;;;;5075678;28;20052;-65
2022/10/05 09:18:10;;;;;;;4.70;2.00;;;17.20;99.90;;;;;;5075921;28;20036;-65
2022/10/05 09:20:52;;;;;;;3.17;2.20;;;17.30;99.90;;;;;;5075990;28;20370;-66
2022/10/05 09:23:43;;;;;;;2.72;1.88;;;17.20;99.90;;;;;;5074519;28;20051;-64
2022/10/05 09:26:40;;;;;;;3.58;2.05;;;17.50;99.90;;;;;;5075962;28;20407;-66
2022/10/05 09:29:25;;;;;;;4.90;2.38;;;17.70;99.90;;;;;;5058815;28;20052;-66
2022/10/05 09:32:07;;;;;;;2.88;1.90;;;18.00;99.90;;;;;;5076197;28;20043;-66
2022/10/05 09:34:52;;;;;;;3.10;1.83;;;18.10;99.90;;;;;;5075462;28;20306;-65
2022/10/05 09:37:45;;;;;;;3.33;1.63;;;18.00;99.90;;;;;;5075730;28;20079;-65
2022/10/05 09:40:35;;;;;;;2.25;1.60;;;17.80;99.90;;;;;;5052687;28;20052;-66
2022/10/05 09:43:45;;;;;;;1.80;1.38;;;17.60;99.90;;;;;;5076436;28;20571;-66
2022/10/05 09:46:38;;;;;;;3.08;1.42;;;17.40;99.90;;;;;;5038386;28;20056;-65
2022/10/05 09:49:28;;;;;;;7.80;1.83;;;17.50;99.90;;;;;;5075320;28;20179;-66
2022/10/05 09:52:32;;;;;;;3.83;1.95;;;17.40;99.90;;;;;;5089546;28;20505;-67
2022/10/05 09:55:24;;;;;;;3.75;1.20;;;17.30;99.90;;;;;;5075522;28;20101;-68
2022/10/05 09:58:11;;;;;;;2.40;1.40;;;17.50;99.90;;;;;;5079501;28;20113;-65
2022/10/05 10:01:08;;;;;;;1.95;1.25;;;17.30;99.90;;;;;;5079322;28;20622;-65
2022/10/05 10:04:05;;;;;;;4.80;1.63;;;17.60;99.90;;;;;;5079434;28;20040;-65
2022/10/05 10:06:50;;;;;;;3.22;1.55;;;17.50;99.90;;;;;;5079752;28;20586;-65
2022/10/05 10:09:28;;;;;;;6.15;1.75;;;17.80;99.90;;;;;;5078566;28;20071;-65
2022/10/05 10:12:20;;;;;;;2.13;1.58;;;17.80;99.90;;;;;;5079971;28;20044;-66
2022/10/05 10:15:11;;;;;;;5.00;1.70;;;17.70;99.90;;;;;;5079215;28;20036;-66
2022/10/05 10:17:48;;;;;;;2.15;1.17;;;17.60;99.90;;;;;;5096003;28;20044;-67
2022/10/05 10:20:21;;;;;;;3.15;1.27;;;17.60;99.90;;;;;;5061598;28;20586;-66
2022/10/05 10:23:02;;;;;;;2.58;1.00;;;17.50;99.90;;;;;;5078681;28;20491;-66
2022/10/05 10:25:30;;;;;;;3.05;1.20;;;17.70;99.90;;;;;;5078789;28;20113;-66
2022/10/05 10:28:24;;;;;;;2.63;0.93;;;17.60;99.90;;;;;;5078488;28;20052;-65
2022/10/05 10:30:53;;;;;;;;;;;17.60;99.90;;;;;;5079690;28;20044;-67
2022/10/05 10:34:04;;;;;;;3.78;0.85;;;17.60;99.90;;;;;;5078776;28;20007;-65
2022/10/05 10:36:54;;;;;;;2.75;0.75;;;17.60;99.90;;;;;;5062114;28;20036;-64
2022/10/05 10:39:30;;;;;;;2.25;0.85;;;17.60;99.90;;;;;;5078655;28;20714;-65
2022/10/05 10:42:14;;;;;;;3.45;1.10;;;17.30;99.90;;;;;;5094710;28;20129;-65
2022/10/05 10:45:21;;;;;;;1.83;0.90;;;17.40;99.90;;;;;;5079106;28;20152;-64
2022/10/05 10:48:22;;;;;;;2.42;0.90;;;17.20;99.90;;;;;;5079422;28;20102;-65
2022/10/05 10:51:02;;;;;;;3.30;0.70;;;17.10;99.90;;;;;;5027568;28;20056;-65
2022/10/05 10:53:36;;;;;;;2.53;0.80;;;17.10;99.90;;;;;;5078852;28;20085;-66
2022/10/05 10:56:16;;;;;;;1.88;0.80;;;17.30;99.90;;;;;;5078500;28;20093;-68
2022/10/05 10:59:17;;;;;;;2.03;0.95;;;17.10;99.90;;;;;;5078719;28;20040;-66
2022/10/05 11:01:58;;;;;;;3.47;0.90;;;17.10;99.90;;;;;;5079106;28;20118;-63
2022/10/05 11:04:53;;;;;;;3.10;0.90;;;17.10;99.90;;;;;;5079070;28;20595;-65
2022/10/05 11:07:22;;;;;;;2.22;1.00;;;17.10;99.90;;;;;;5050909;28;20044;-66
2022/10/05 11:10:13;;;;;;;1.70;0.80;;;17.30;99.90;;;;;;5049673;28;20119;-64
2022/10/05 11:13:11;;;;;;;3.92;0.90;;;17.20;99.90;;;;;;5031577;28;20139;-64
2022/10/05 11:15:48;;;;;;;2.83;1.20;;;17.40;99.90;;;;;;5077733;28;20036;-65
2022/10/05 11:18:39;;;;;;;2.72;0.88;;;17.10;99.90;;;;;;5079963;28;20113;-65
2022/10/05 11:21:35;;;;;;;2.22;1.08;;;17.30;99.90;;;;;;5079497;28;20163;-65
2022/10/05 11:24:10;;;;;;;1.85;0.88;;;17.20;99.90;;;;;;5079966;28;20635;-66
2022/10/05 11:27:13;;;;;;;3.13;1.00;;;17.30;99.90;;;;;;5077454;28;20051;-65
2022/10/05 11:30:04;;;;;;;2.22;1.10;;;17.10;99.90;;;;;;5077783;28;20044;-65
2022/10/05 11:32:48;;;;;;;3.05;1.17;;;17.20;99.90;;;;;;5077546;28;20071;-65
2022/10/05 11:35:32;;;;;;;3.88;1.35;;;17.10;99.90;;;;;;5078346;28;20036;-64
2022/10/05 11:38:22;;;;;;;3.75;1.35;;;17.10;99.90;;;;;;5049207;28;20110;-64
2022/10/05 11:41:06;;;;;;;1.92;1.27;;;17.20;99.90;;;;;;5079019;28;20464;-65
2022/10/05 11:44:04;;;;;;;5.65;1.45;;;17.00;99.90;;;;;;5065146;28;20645;-65
2022/10/05 11:46:45;;;;;;;2.72;1.27;;;17.00;99.90;;;;;;5041202;28;20060;-65
2022/10/05 11:49:28;;;;;;;2.53;1.17;;;17.00;99.90;;;;;;5079338;28;20557;-65
2022/10/05 11:52:16;;;;;;;4.70;1.70;;;17.00;99.90;;;;;;5078975;28;20636;-64
2022/10/05 11:55:04;;;;;;;1.75;1.20;;;16.90;99.90;;;;;;5061566;28;20048;-65
2022/10/05 11:57:57;;;;;;;3.95;1.20;;;17.00;99.90;;;;;;5078759;28;20105;-65
2022/10/05 12:00:35;;;;;;;4.68;1.10;;;17.00;99.90;;;;;;5060730;28;20044;-65
2022/10/05 12:03:16;;;;;;;3.63;1.20;;;17.00;99.90;;;;;;5061005;28;20444;-66
2022/10/05 12:06:04;;;;;;;4.10;1.17;;;16.90;99.90;;;;;;5061180;28;20075;-66
2022/10/05 12:08:42;;;;;;;5.40;1.25;;;16.80;99.90;;;;;;5077312;28;20485;-66
2022/10/05 12:11:11;;;;;;;2.30;1.20;;;16.90;99.90;;;;;;5078849;28;20036;-65
2022/10/05 12:13:50;;;;;;;3.38;1.10;;;16.80;99.90;;;;;;5078088;28;20036;-63
2022/10/05 12:16:40;;;;;;;4.03;0.90;;;16.70;99.90;;;;;;5079201;28;20040;-66
2022/10/05 12:19:13;;;;;;;2.63;1.17;;;16.90;99.90;;;;;;5078310;28;20036;-64
2022/10/05 12:22:03;;;;;;;2.63;1.00;;;16.70;99.90;;;;;;5078904;28;20758;-65
2022/10/05 12:24:34;;;;;;;4.38;1.00;;;16.70;99.90;;;;;;5078566;28;20560;-65
2022/10/05 12:27:06;;;;;;;1.23;0.88;;;16.70;99.90;;;;;;5059941;28;20055;-65
2022/10/05 12:29:40;;;;;;;2.40;1.00;;;16.80;99.90;;;;;;5078710;28;20048;-67
2022/10/05 12:32:16;;;;;;;3.67;1.00;;;16.70;99.90;;;;;;5078220;28;20040;-63
2022/10/05 12:34:50;;;;;;;2.40;0.80;;;16.80;99.90;;;;;;5079109;28;20110;-65
2022/10/05 12:37:37;;;;;;;4.57;1.10;;;16.90;99.90;;;;;;5058361;28;20071;-66
2022/10/05 12:40:20;;;;;;;3.30;1.27;;;16.90;99.90;;;;;;5078962;28;20064;-66
2022/10/05 12:43:22;;;;;;;4.68;1.40;;;16.80;99.90;;;;;;5078221;28;20245;-66
2022/10/05 12:46:12;;;;;;;2.35;1.10;;;16.80;99.90;;;;;;5078231;28;20040;-65
2022/10/05 12:48:55;;;;;;;3.92;1.65;;;16.80;99.90;;;;;;5078741;28;20040;-66
2022/10/05 12:51:45;;;;;;;4.40;1.70;;;16.80;99.90;;;;;;5078794;28;20398;-65
2022/10/05 12:54:48;;;;;;;2.03;1.75;;;16.80;99.90;;;;;;5079037;28;20568;-66
2022/10/05 12:57:35;;;;;;;2.85;2.00;;;16.80;99.90;;;;;;5062018;28;20036;-65
2022/10/05 13:00:08;;;;;;;5.32;1.98;;;17.00;99.90;;;;;;5061082;28;20044;-66
2022/10/05 13:02:48;;;;;;;4.93;1.85;;;16.80;99.90;;;;;;5077584;28;20044;-65
2022/10/05 13:05:20;;;;;;;5.43;1.98;;;17.00;99.90;;;;;;5078062;28;20071;-66
2022/10/05 13:08:24;;;;;;;4.97;1.98;;;16.90;99.90;;;;;;5060327;28;20040;-65
2022/10/05 13:10:58;;;;;;;4.88;1.90;;;16.90;99.90;;;;;;4996805;28;20053;-65
2022/10/05 13:13:36;;;;;;;5.28;2.05;;;17.00;99.90;;;;;;4985307;28;20509;-64
2022/10/05 13:16:07;;;;;;;3.10;1.90;;;16.80;99.90;;;;;;5044588;28;20217;-65
2022/10/05 13:18:53;;;;;;;3.17;1.80;;;16.80;99.90;;;;;;5059994;28;20080;-65
2022/10/05 13:21:26;;;;;;;4.40;1.80;;;17.00;99.90;;;;;;5059986;28;20032;-64
2022/10/05 13:24:04;;;;;;;4.65;1.70;;;17.00;99.90;;;;;;5076314;28;20127;-65
2022/10/05 13:26:45;;;;;;;3.22;1.55;;;16.90;99.90;;;;;;5059100;28;20040;-65
2022/10/05 13:29:38;;;;;;;3.90;1.52;;;16.80;99.90;;;;;;5077042;28;20097;-66
2022/10/05 13:32:22;;;;;;;;;;;16.80;99.90;;;;;;5079290;28;20044;-65
2022/10/05 13:34:48;;;;;;;2.67;1.60;;;16.80;99.90;;;;;;5081101;28;19924;-65
2022/10/05 13:37:30;;;;;;;3.80;1.33;;;16.90;99.90;;;;;;5081019;28;20040;-65
2022/10/05 13:40:43;;;;;;;3.22;1.42;;;17.10;99.90;;;;;;5063925;28;20505;-66
2022/10/05 13:43:26;;;;;;;5.63;1.80;;;17.20;99.90;;;;;;5063844;28;20124;-65
2022/10/05 13:46:32;;;;;;;4.22;1.63;;;17.20;99.90;;;;;;5080499;28;20127;-65
2022/10/05 13:49:29;;;;;;;5.85;1.17;;;17.50;99.90;;;;;;5075753;28;20060;-64
2022/10/05 13:52:16;;;;;;;3.22;1.33;;;17.40;99.90;;;;;;5078310;28;20036;-65
2022/10/05 13:55:00;;;;;;;4.93;1.25;;;17.50;99.90;;;;;;5074490;28;21933;-66
2022/10/05 13:58:04;;;;;;;3.25;1.15;;;17.60;99.90;;;;;;5057582;28;20822;-65
2022/10/05 14:00:34;;;;;;;1.95;0.90;;;17.40;99.90;;;;;;5050841;28;20040;-65
2022/10/05 14:03:00;;;;;;;3.80;1.23;;;17.50;99.90;;;;;;5056871;28;20032;-64
2022/10/05 14:05:29;;;;;;;3.10;1.55;;;17.60;99.90;;;;;;5058640;28;20631;-66
2022/10/05 14:08:15;;;;;;;5.53;1.60;;;17.70;99.90;;;;;;5075287;28;20123;-66
2022/10/05 14:10:44;;;;;;;3.17;1.50;;;17.70;99.90;;;;;;5057861;28;20454;-67